sensor_id;sensor_type;location;lat;lon;timestamp;pressure;altitude;pressure_sealevel;temperature;humidity
34712;BME280;20941;42.408;25.634;2022-10-22T00:01:41;100575.56;;;8.01;85.05
34712;BME280;20941;42.408;25.634;2022-10-22T00:04:06;100561.53;;;7.96;84.92
34712;BME280;20941;42.408;25.634;2022-10-22T00:06:32;100558.06;;;7.83;84.87
34712;BME280;20941;42.408;25.634;2022-10-22T00:08:58;100565.97;;;7.92;84.79
34712;BME280;20941;42.408;25.634;2022-10-22T00:11:23;100559.22;;;7.87;84.90
34712;BME280;20941;42.408;25.634;2022-10-22T00:13:49;100536.72;;;7.77;84.59
34712;BME280;20941;42.408;25.634;2022-10-22T00:16:15;100548.03;;;7.87;84.66
34712;BME280;20941;42.408;25.634;2022-10-22T00:18:40;100560.94;;;7.89;85.15
34712;BME280;20941;42.408;25.634;2022-10-22T00:21:06;100542.56;;;7.70;85.42
34712;BME280;20941;42.408;25.634;2022-10-22T00:23:33;100538.38;;;7.73;85.60
34712;BME280;20941;42.408;25.634;2022-10-22T00:25:58;100529.94;;;7.68;85.86
34712;BME280;20941;42.408;25.634;2022-10-22T00:28:24;100509.13;;;7.53;85.96
34712;BME280;20941;42.408;25.634;2022-10-22T00:30:57;100537.19;;;7.64;86.15
34712;BME280;20941;42.408;25.634;2022-10-22T00:33:24;100545.38;;;7.70;86.01
34712;BME280;20941;42.408;25.634;2022-10-22T00:35:49;100532.47;;;7.69;86.34
34712;BME280;20941;42.408;25.634;2022-10-22T00:38:15;100533.88;;;7.67;86.17
34712;BME280;20941;42.408;25.634;2022-10-22T00:40:40;100531.06;;;7.67;86.07
34712;BME280;20941;42.408;25.634;2022-10-22T00:43:10;100539.72;;;7.65;86.33
34712;BME280;20941;42.408;25.634;2022-10-22T00:45:36;100518.41;;;7.59;86.79
34712;BME280;20941;42.408;25.634;2022-10-22T00:48:10;100526.19;;;7.52;87.11
34712;BME280;20941;42.408;25.634;2022-10-22T00:50:40;100544.41;;;7.54;87.22
34712;BME280;20941;42.408;25.634;2022-10-22T00:53:19;100535.97;;;7.49;87.47
34712;BME280;20941;42.408;25.634;2022-10-22T00:55:48;100525.84;;;7.43;87.84
34712;BME280;20941;42.408;25.634;2022-10-22T00:58:14;100519.16;;;7.49;87.53
34712;BME280;20941;42.408;25.634;2022-10-22T01:00:40;100507.09;;;7.49;87.66
34712;BME280;20941;42.408;25.634;2022-10-22T01:03:06;100502.38;;;7.49;87.23
34712;BME280;20941;42.408;25.634;2022-10-22T01:05:40;100527.16;;;7.68;87.20
34712;BME280;20941;42.408;25.634;2022-10-22T01:08:10;100522.38;;;7.68;86.89
34712;BME280;20941;42.408;25.634;2022-10-22T01:19:07;100506.78;;;7.78;85.68
34712;BME280;20941;42.408;25.634;2022-10-22T01:21:50;100507.06;;;7.76;85.81
34712;BME280;20941;42.408;25.634;2022-10-22T01:30:10;100505.72;;;7.51;87.43
34712;BME280;20941;42.408;25.634;2022-10-22T01:32:42;100493.44;;;7.58;87.59
34712;BME280;20941;42.408;25.634;2022-10-22T01:35:12;100496.31;;;7.63;87.55
34712;BME280;20941;42.408;25.634;2022-10-22T01:37:45;100504.44;;;7.64;87.30
34712;BME280;20941;42.408;25.634;2022-10-22T01:40:14;100495.75;;;7.66;87.05
34712;BME280;20941;42.408;25.634;2022-10-22T01:42:40;100479.47;;;7.58;87.19
34712;BME280;20941;42.408;25.634;2022-10-22T01:45:11;100476.34;;;7.54;87.11
34712;BME280;20941;42.408;25.634;2022-10-22T01:55:43;100473.91;;;7.63;86.33
34712;BME280;20941;42.408;25.634;2022-10-22T02:04:12;100496.00;;;7.59;86.60
34712;BME280;20941;42.408;25.634;2022-10-22T02:06:41;100488.94;;;7.51;86.76
34712;BME280;20941;42.408;25.634;2022-10-22T02:09:09;100458.03;;;7.36;87.27
34712;BME280;20941;42.408;25.634;2022-10-22T02:11:36;100493.44;;;7.58;86.68
34712;BME280;20941;42.408;25.634;2022-10-22T02:14:03;100494.00;;;7.54;86.93
34712;BME280;20941;42.408;25.634;2022-10-22T02:16:35;100494.53;;;7.51;87.05
34712;BME280;20941;42.408;25.634;2022-10-22T02:19:14;100474.81;;;7.36;86.91
34712;BME280;20941;42.408;25.634;2022-10-22T02:21:42;100474.59;;;7.43;87.06
34712;BME280;20941;42.408;25.634;2022-10-22T02:24:08;100491.72;;;7.51;87.03
34712;BME280;20941;42.408;25.634;2022-10-22T02:26:38;100452.38;;;7.31;86.56
34712;BME280;20941;42.408;25.634;2022-10-22T02:29:57;100489.78;;;7.52;86.76
34712;BME280;20941;42.408;25.634;2022-10-22T02:31:57;100497.59;;;7.50;87.25
34712;BME280;20941;42.408;25.634;2022-10-22T02:34:27;100488.84;;;7.41;87.35
34712;BME280;20941;42.408;25.634;2022-10-22T02:36:55;100495.88;;;7.44;87.58
34712;BME280;20941;42.408;25.634;2022-10-22T02:39:21;100488.84;;;7.41;87.51
34712;BME280;20941;42.408;25.634;2022-10-22T02:41:47;100483.78;;;7.38;87.25
34712;BME280;20941;42.408;25.634;2022-10-22T02:44:13;100504.59;;;7.47;86.80
34712;BME280;20941;42.408;25.634;2022-10-22T02:46:39;100480.66;;;7.34;87.02
34712;BME280;20941;42.408;25.634;2022-10-22T02:49:06;100486.03;;;7.36;86.79
34712;BME280;20941;42.408;25.634;2022-10-22T02:51:31;100504.28;;;7.44;86.94
34712;BME280;20941;42.408;25.634;2022-10-22T02:53:57;100497.84;;;7.43;87.44
34712;BME280;20941;42.408;25.634;2022-10-22T02:56:23;100483.22;;;7.36;87.55
34712;BME280;20941;42.408;25.634;2022-10-22T02:58:48;100487.56;;;7.21;88.06
34712;BME280;20941;42.408;25.634;2022-10-22T03:01:13;100504.72;;;7.30;88.05
34712;BME280;20941;42.408;25.634;2022-10-22T03:03:39;100507.47;;;7.25;88.47
34712;BME280;20941;42.408;25.634;2022-10-22T03:06:05;100501.00;;;7.25;88.27
34712;BME280;20941;42.408;25.634;2022-10-22T03:08:30;100502.69;;;7.26;88.30
34712;BME280;20941;42.408;25.634;2022-10-22T03:10:56;100498.72;;;7.16;88.74
34712;BME280;20941;42.408;25.634;2022-10-22T03:13:21;100504.63;;;7.20;88.50
34712;BME280;20941;42.408;25.634;2022-10-22T03:15:48;100502.38;;;7.22;88.51
34712;BME280;20941;42.408;25.634;2022-10-22T03:18:14;100498.16;;;7.19;88.34
34712;BME280;20941;42.408;25.634;2022-10-22T03:20:39;100489.09;;;7.07;88.00
34712;BME280;20941;42.408;25.634;2022-10-22T03:23:05;100466.97;;;7.00;88.37
34712;BME280;20941;42.408;25.634;2022-10-22T03:25:31;100496.41;;;7.08;88.08
34712;BME280;20941;42.408;25.634;2022-10-22T03:28:03;100477.28;;;7.00;88.06
34712;BME280;20941;42.408;25.634;2022-10-22T03:30:30;100455.91;;;6.88;87.74
34712;BME280;20941;42.408;25.634;2022-10-22T03:32:56;100462.75;;;6.98;87.26
34712;BME280;20941;42.408;25.634;2022-10-22T03:35:21;100502.06;;;7.18;87.15
34712;BME280;20941;42.408;25.634;2022-10-22T03:37:47;100481.31;;;7.09;87.17
34712;BME280;20941;42.408;25.634;2022-10-22T03:40:13;100451.22;;;6.94;86.70
34712;BME280;20941;42.408;25.634;2022-10-22T03:42:40;100491.75;;;7.19;86.97
34712;BME280;20941;42.408;25.634;2022-10-22T03:45:07;100485.28;;;7.18;87.27
34712;BME280;20941;42.408;25.634;2022-10-22T03:47:32;100482.25;;;7.20;87.25
34712;BME280;20941;42.408;25.634;2022-10-22T03:49:58;100466.72;;;7.07;87.33
34712;BME280;20941;42.408;25.634;2022-10-22T03:52:24;100454.38;;;7.03;87.33
34712;BME280;20941;42.408;25.634;2022-10-22T03:54:50;100472.94;;;7.14;87.28
34712;BME280;20941;42.408;25.634;2022-10-22T03:57:15;100476.03;;;7.13;87.61
34712;BME280;20941;42.408;25.634;2022-10-22T03:59:43;100464.50;;;7.09;87.58
34712;BME280;20941;42.408;25.634;2022-10-22T04:02:10;100465.16;;;7.16;87.38
34712;BME280;20941;42.408;25.634;2022-10-22T04:04:36;100448.25;;;7.06;87.57
34712;BME280;20941;42.408;25.634;2022-10-22T04:07:02;100458.91;;;7.09;87.72
34712;BME280;20941;42.408;25.634;2022-10-22T04:09:32;100467.94;;;7.16;87.78
34712;BME280;20941;42.408;25.634;2022-10-22T04:11:58;100464.28;;;7.16;87.16
34712;BME280;20941;42.408;25.634;2022-10-22T04:14:23;100466.72;;;7.07;87.09
34712;BME280;20941;42.408;25.634;2022-10-22T04:16:49;100451.00;;;7.01;87.50
34712;BME280;20941;42.408;25.634;2022-10-22T04:19:14;100468.94;;;7.05;87.30
34712;BME280;20941;42.408;25.634;2022-10-22T04:21:40;100480.19;;;7.10;87.39
34712;BME280;20941;42.408;25.634;2022-10-22T04:24:06;100472.31;;;7.07;87.49
34712;BME280;20941;42.408;25.634;2022-10-22T04:26:31;100439.19;;;6.94;87.63
34712;BME280;20941;42.408;25.634;2022-10-22T04:28:57;100441.66;;;6.90;87.61
34712;BME280;20941;42.408;25.634;2022-10-22T04:31:23;100450.66;;;6.92;88.76
34712;BME280;20941;42.408;25.634;2022-10-22T04:33:54;100457.03;;;6.87;87.80
34712;BME280;20941;42.408;25.634;2022-10-22T04:36:20;100472.75;;;6.94;88.84
34712;BME280;20941;42.408;25.634;2022-10-22T04:38:52;100461.25;;;6.90;88.44
34712;BME280;20941;42.408;25.634;2022-10-22T04:41:20;100461.47;;;6.83;89.26
34712;BME280;20941;42.408;25.634;2022-10-22T04:43:47;100472.66;;;6.83;89.27
34712;BME280;20941;42.408;25.634;2022-10-22T04:46:14;100462.53;;;6.77;89.71
34712;BME280;20941;42.408;25.634;2022-10-22T04:48:41;100475.44;;;6.83;88.99
34712;BME280;20941;42.408;25.634;2022-10-22T04:51:10;100477.16;;;6.84;89.53
34712;BME280;20941;42.408;25.634;2022-10-22T04:53:36;100478.25;;;6.83;88.85
34712;BME280;20941;42.408;25.634;2022-10-22T04:56:16;100483.28;;;6.86;90.65
34712;BME280;20941;42.408;25.634;2022-10-22T04:58:45;100478.34;;;6.94;90.57
34712;BME280;20941;42.408;25.634;2022-10-22T05:01:17;100480.06;;;7.00;90.48
34712;BME280;20941;42.408;25.634;2022-10-22T05:03:44;100472.88;;;7.04;89.13
34712;BME280;20941;42.408;25.634;2022-10-22T05:06:10;100477.91;;;7.07;89.69
34712;BME280;20941;42.408;25.634;2022-10-22T05:08:35;100467.28;;;7.04;88.46
34712;BME280;20941;42.408;25.634;2022-10-22T05:11:09;100481.66;;;7.18;87.78
34712;BME280;20941;42.408;25.634;2022-10-22T05:13:35;100469.00;;;7.10;87.81
34712;BME280;20941;42.408;25.634;2022-10-22T05:16:00;100452.22;;;7.10;86.79
34712;BME280;20941;42.408;25.634;2022-10-22T05:18:26;100479.75;;;7.23;85.96
34712;BME280;20941;42.408;25.634;2022-10-22T05:20:52;100456.69;;;7.11;85.91
34712;BME280;20941;42.408;25.634;2022-10-22T05:23:17;100476.41;;;7.27;85.64
34712;BME280;20941;42.408;25.634;2022-10-22T05:25:43;100448.03;;;7.13;85.36
34712;BME280;20941;42.408;25.634;2022-10-22T05:28:08;100472.28;;;7.34;85.20
34712;BME280;20941;42.408;25.634;2022-10-22T05:30:33;100446.78;;;7.31;86.64
34712;BME280;20941;42.408;25.634;2022-10-22T05:32:59;100456.03;;;7.31;86.25
34712;BME280;20941;42.408;25.634;2022-10-22T05:35:24;100479.38;;;7.47;85.40
34712;BME280;20941;42.408;25.634;2022-10-22T05:37:50;100486.47;;;7.60;85.45
34712;BME280;20941;42.408;25.634;2022-10-22T05:40:16;100479.56;;;7.68;85.22
34712;BME280;20941;42.408;25.634;2022-10-22T05:42:41;100445.91;;;7.63;84.92
34712;BME280;20941;42.408;25.634;2022-10-22T05:45:07;100466.78;;;7.82;84.40
34712;BME280;20941;42.408;25.634;2022-10-22T05:47:33;100474.44;;;8.02;84.57
34712;BME280;20941;42.408;25.634;2022-10-22T05:49:59;100476.19;;;8.19;84.22
34712;BME280;20941;42.408;25.634;2022-10-22T05:52:24;100488.91;;;8.37;83.60
34712;BME280;20941;42.408;25.634;2022-10-22T05:54:50;100470.16;;;8.38;83.52
34712;BME280;20941;42.408;25.634;2022-10-22T05:57:15;100479.50;;;8.64;82.26
34712;BME280;20941;42.408;25.634;2022-10-22T05:59:41;100480.69;;;8.78;81.29
34712;BME280;20941;42.408;25.634;2022-10-22T06:02:11;100476.78;;;8.85;79.72
34712;BME280;20941;42.408;25.634;2022-10-22T06:04:37;100475.13;;;8.99;79.32
34712;BME280;20941;42.408;25.634;2022-10-22T06:07:02;100477.34;;;9.02;78.45
34712;BME280;20941;42.408;25.634;2022-10-22T06:09:30;100485.25;;;9.31;78.89
34712;BME280;20941;42.408;25.634;2022-10-22T06:11:58;100482.16;;;9.43;79.43
34712;BME280;20941;42.408;25.634;2022-10-22T06:14:24;100469.25;;;9.37;79.57
34712;BME280;20941;42.408;25.634;2022-10-22T06:16:51;100490.31;;;9.65;79.89
34712;BME280;20941;42.408;25.634;2022-10-22T06:19:18;100481.59;;;9.77;79.72
34712;BME280;20941;42.408;25.634;2022-10-22T06:21:44;100481.84;;;9.91;78.27
34712;BME280;20941;42.408;25.634;2022-10-22T06:24:11;100475.66;;;10.04;77.49
34712;BME280;20941;42.408;25.634;2022-10-22T06:26:37;100481.81;;;10.06;75.80
34712;BME280;20941;42.408;25.634;2022-10-22T06:29:02;100481.19;;;10.25;74.82
34712;BME280;20941;42.408;25.634;2022-10-22T06:31:28;100479.81;;;10.27;74.01
34712;BME280;20941;42.408;25.634;2022-10-22T06:34:01;100478.09;;;10.26;73.42
34712;BME280;20941;42.408;25.634;2022-10-22T06:36:27;100473.31;;;10.27;72.63
34712;BME280;20941;42.408;25.634;2022-10-22T06:38:54;100450.88;;;10.17;71.95
34712;BME280;20941;42.408;25.634;2022-10-22T06:41:19;100490.16;;;10.48;70.64
34712;BME280;20941;42.408;25.634;2022-10-22T06:43:45;100470.47;;;10.32;70.91
34712;BME280;20941;42.408;25.634;2022-10-22T06:46:12;100489.28;;;10.52;70.75
34712;BME280;20941;42.408;25.634;2022-10-22T06:48:38;100482.78;;;10.62;70.81
34712;BME280;20941;42.408;25.634;2022-10-22T06:51:09;100479.41;;;10.60;70.32
34712;BME280;20941;42.408;25.634;2022-10-22T06:53:36;100477.72;;;10.59;70.59
34712;BME280;20941;42.408;25.634;2022-10-22T06:56:10;100489.47;;;10.71;71.37
34712;BME280;20941;42.408;25.634;2022-10-22T06:58:36;100490.59;;;10.75;71.08
34712;BME280;20941;42.408;25.634;2022-10-22T07:01:08;100493.38;;;10.81;70.53
34712;BME280;20941;42.408;25.634;2022-10-22T07:03:33;100496.16;;;10.86;70.27
34712;BME280;20941;42.408;25.634;2022-10-22T07:06:00;100502.59;;;10.91;70.35
34712;BME280;20941;42.408;25.634;2022-10-22T07:08:27;100494.44;;;10.95;69.99
34712;BME280;20941;42.408;25.634;2022-10-22T07:10:53;100495.84;;;10.93;70.65
34712;BME280;20941;42.408;25.634;2022-10-22T07:13:18;100482.31;;;10.95;70.47
34712;BME280;20941;42.408;25.634;2022-10-22T07:15:44;100488.63;;;11.16;69.27
34712;BME280;20941;42.408;25.634;2022-10-22T07:18:09;100476.81;;;11.19;69.14
34712;BME280;20941;42.408;25.634;2022-10-22T07:20:35;100479.25;;;11.31;68.97
34712;BME280;20941;42.408;25.634;2022-10-22T07:23:00;100450.88;;;11.22;68.57
34712;BME280;20941;42.408;25.634;2022-10-22T07:25:26;100466.47;;;11.44;68.65
34712;BME280;20941;42.408;25.634;2022-10-22T07:27:51;100475.56;;;11.70;68.39
34712;BME280;20941;42.408;25.634;2022-10-22T07:30:17;100472.06;;;11.78;66.85
34712;BME280;20941;42.408;25.634;2022-10-22T07:32:42;100448.75;;;11.72;66.51
34712;BME280;20941;42.408;25.634;2022-10-22T07:35:08;100476.16;;;11.96;66.74
34712;BME280;20941;42.408;25.634;2022-10-22T07:37:33;100436.72;;;11.91;65.95
34712;BME280;20941;42.408;25.634;2022-10-22T07:39:59;100463.88;;;12.35;65.53
34712;BME280;20941;42.408;25.634;2022-10-22T07:42:24;100443.06;;;12.31;64.83
34712;BME280;20941;42.408;25.634;2022-10-22T07:44:50;100462.56;;;12.52;64.70
34712;BME280;20941;42.408;25.634;2022-10-22T07:47:16;100422.19;;;12.51;64.38
34712;BME280;20941;42.408;25.634;2022-10-22T07:49:41;100454.81;;;12.82;62.49
34712;BME280;20941;42.408;25.634;2022-10-22T07:52:07;100453.00;;;12.91;61.88
34712;BME280;20941;42.408;25.634;2022-10-22T07:54:32;100467.50;;;13.04;61.94
34712;BME280;20941;42.408;25.634;2022-10-22T07:56:58;100465.63;;;13.13;62.02
34712;BME280;20941;42.408;25.634;2022-10-22T07:59:23;100449.16;;;13.20;61.81
34712;BME280;20941;42.408;25.634;2022-10-22T08:01:49;100456.31;;;13.31;61.61
34712;BME280;20941;42.408;25.634;2022-10-22T08:04:14;100449.38;;;13.24;62.03
34712;BME280;20941;42.408;25.634;2022-10-22T08:06:40;100445.41;;;13.25;62.48
34712;BME280;20941;42.408;25.634;2022-10-22T08:09:05;100452.59;;;13.17;62.55
34712;BME280;20941;42.408;25.634;2022-10-22T08:11:31;100438.16;;;12.99;62.35
34712;BME280;20941;42.408;25.634;2022-10-22T08:13:58;100446.78;;;13.08;63.28
34712;BME280;20941;42.408;25.634;2022-10-22T08:16:23;100447.63;;;13.09;62.79
34712;BME280;20941;42.408;25.634;2022-10-22T08:18:50;100457.72;;;13.15;63.22
34712;BME280;20941;42.408;25.634;2022-10-22T08:21:15;100457.31;;;13.22;62.45
34712;BME280;20941;42.408;25.634;2022-10-22T08:23:42;100455.25;;;13.27;62.88
34712;BME280;20941;42.408;25.634;2022-10-22T08:26:08;100450.66;;;13.31;62.18
34712;BME280;20941;42.408;25.634;2022-10-22T08:28:33;100457.88;;;13.43;62.08
34712;BME280;20941;42.408;25.634;2022-10-22T08:31:05;100450.97;;;13.49;62.10
34712;BME280;20941;42.408;25.634;2022-10-22T08:33:32;100447.34;;;13.62;61.80
34712;BME280;20941;42.408;25.634;2022-10-22T08:35:57;100421.13;;;13.43;61.72
34712;BME280;20941;42.408;25.634;2022-10-22T08:38:25;100431.22;;;13.63;61.86
34712;BME280;20941;42.408;25.634;2022-10-22T08:40:53;100431.16;;;13.82;61.51
34712;BME280;20941;42.408;25.634;2022-10-22T08:48:44;100420.19;;;13.94;59.56
34712;BME280;20941;42.408;25.634;2022-10-22T08:51:14;100412.94;;;14.16;59.59
34712;BME280;20941;42.408;25.634;2022-10-22T08:53:48;100418.19;;;14.37;59.11
34712;BME280;20941;42.408;25.634;2022-10-22T08:56:17;100418.59;;;14.72;58.37
34712;BME280;20941;42.408;25.634;2022-10-22T08:58:55;100412.66;;;14.96;56.73
34712;BME280;20941;42.408;25.634;2022-10-22T09:01:37;100426.41;;;15.26;55.58
34712;BME280;20941;42.408;25.634;2022-10-22T09:04:11;100423.69;;;15.43;55.24
34712;BME280;20941;42.408;25.634;2022-10-22T09:06:41;100406.31;;;15.59;55.51
34712;BME280;20941;42.408;25.634;2022-10-22T09:09:15;100407.50;;;15.66;54.59
34712;BME280;20941;42.408;25.634;2022-10-22T09:11:49;100403.09;;;15.29;54.96
34712;BME280;20941;42.408;25.634;2022-10-22T09:14:21;100409.34;;;15.39;55.57
34712;BME280;20941;42.408;25.634;2022-10-22T09:25:12;100403.88;;;16.64;52.33
34712;BME280;20941;42.408;25.634;2022-10-22T09:27:38;100391.72;;;16.81;52.10
34712;BME280;20941;42.408;25.634;2022-10-22T09:30:04;100398.44;;;16.94;51.26
34712;BME280;20941;42.408;25.634;2022-10-22T09:32:31;100378.56;;;17.03;50.85
34712;BME280;20941;42.408;25.634;2022-10-22T09:34:57;100389.72;;;16.90;50.89
34712;BME280;20941;42.408;25.634;2022-10-22T09:37:27;100381.53;;;17.24;50.98
34712;BME280;20941;42.408;25.634;2022-10-22T09:39:55;100377.84;;;17.41;50.60
34712;BME280;20941;42.408;25.634;2022-10-22T09:42:23;100374.84;;;17.37;50.51
34712;BME280;20941;42.408;25.634;2022-10-22T09:44:54;100368.81;;;17.47;49.31
34712;BME280;20941;42.408;25.634;2022-10-22T09:47:39;100372.97;;;17.59;49.25
34712;BME280;20941;42.408;25.634;2022-10-22T09:50:17;100364.16;;;17.81;48.99
34712;BME280;20941;42.408;25.634;2022-10-22T09:52:45;100358.75;;;17.50;48.76
34712;BME280;20941;42.408;25.634;2022-10-22T09:55:17;100364.56;;;17.71;48.86
34712;BME280;20941;42.408;25.634;2022-10-22T09:57:43;100351.50;;;17.70;48.74
34712;BME280;20941;42.408;25.634;2022-10-22T10:00:10;100352.22;;;17.49;48.67
34712;BME280;20941;42.408;25.634;2022-10-22T10:02:39;100350.13;;;17.29;48.26
34712;BME280;20941;42.408;25.634;2022-10-22T10:05:17;100343.75;;;17.23;48.73
34712;BME280;20941;42.408;25.634;2022-10-22T10:07:44;100334.75;;;17.12;48.70
34712;BME280;20941;42.408;25.634;2022-10-22T10:13:02;100296.59;;;17.22;49.22
34712;BME280;20941;42.408;25.634;2022-10-22T10:29:31;100282.59;;;19.43;44.99
34712;BME280;20941;42.408;25.634;2022-10-22T10:37:42;100287.00;;;18.85;45.99
34712;BME280;20941;42.408;25.634;2022-10-22T10:45:28;100266.19;;;18.72;45.64
34712;BME280;20941;42.408;25.634;2022-10-22T10:50:42;100253.03;;;19.14;45.59
34712;BME280;20941;42.408;25.634;2022-10-22T10:53:20;100258.47;;;19.52;45.96
34712;BME280;20941;42.408;25.634;2022-10-22T10:56:03;100242.91;;;19.50;43.95
34712;BME280;20941;42.408;25.634;2022-10-22T10:58:45;100253.47;;;19.49;44.36
34712;BME280;20941;42.408;25.634;2022-10-22T11:04:39;100238.69;;;19.35;45.25
34712;BME280;20941;42.408;25.634;2022-10-22T11:07:10;100234.53;;;19.20;45.12
34712;BME280;20941;42.408;25.634;2022-10-22T11:09:43;100229.78;;;19.24;45.26
34712;BME280;20941;42.408;25.634;2022-10-22T11:12:19;100231.44;;;19.25;45.18
34712;BME280;20941;42.408;25.634;2022-10-22T11:15:24;100223.13;;;19.20;45.85
34712;BME280;20941;42.408;25.634;2022-10-22T11:17:52;100218.06;;;18.92;46.26
34712;BME280;20941;42.408;25.634;2022-10-22T11:20:38;100209.81;;;19.12;45.74
34712;BME280;20941;42.408;25.634;2022-10-22T11:23:23;100210.53;;;19.21;45.11
34712;BME280;20941;42.408;25.634;2022-10-22T11:25:51;100215.88;;;19.35;44.35
34712;BME280;20941;42.408;25.634;2022-10-22T11:28:28;100201.16;;;19.33;44.36
34712;BME280;20941;42.408;25.634;2022-10-22T11:31:16;100199.69;;;19.02;44.67
34712;BME280;20941;42.408;25.634;2022-10-22T11:36:20;100196.41;;;18.79;45.78
34712;BME280;20941;42.408;25.634;2022-10-22T11:38:47;100195.28;;;18.92;45.50
34712;BME280;20941;42.408;25.634;2022-10-22T11:41:16;100162.91;;;18.88;45.77
34712;BME280;20941;42.408;25.634;2022-10-22T11:43:57;100182.25;;;19.16;45.28
34712;BME280;20941;42.408;25.634;2022-10-22T11:46:38;100162.16;;;19.12;44.84
34712;BME280;20941;42.408;25.634;2022-10-22T11:51:35;100173.47;;;19.21;44.77
34712;BME280;20941;42.408;25.634;2022-10-22T11:54:25;100164.19;;;19.61;44.41
34712;BME280;20941;42.408;25.634;2022-10-22T11:57:16;100145.66;;;19.67;43.75
34712;BME280;20941;42.408;25.634;2022-10-22T12:02:40;100152.56;;;20.32;42.70
34712;BME280;20941;42.408;25.634;2022-10-22T12:07:50;100150.16;;;20.34;42.67
34712;BME280;20941;42.408;25.634;2022-10-22T12:10:21;100122.75;;;20.45;42.16
34712;BME280;20941;42.408;25.634;2022-10-22T12:12:57;100133.91;;;20.95;41.24
34712;BME280;20941;42.408;25.634;2022-10-22T12:15:26;100124.22;;;20.99;41.12
34712;BME280;20941;42.408;25.634;2022-10-22T12:17:58;100114.06;;;20.86;40.55
34712;BME280;20941;42.408;25.634;2022-10-22T12:20:25;100128.91;;;20.92;40.77
34712;BME280;20941;42.408;25.634;2022-10-22T12:22:51;100131.19;;;20.70;41.33
34712;BME280;20941;42.408;25.634;2022-10-22T12:25:21;100125.38;;;20.66;41.88
34712;BME280;20941;42.408;25.634;2022-10-22T12:27:55;100114.19;;;20.61;41.26
34712;BME280;20941;42.408;25.634;2022-10-22T12:30:25;100115.81;;;20.75;40.83
34712;BME280;20941;42.408;25.634;2022-10-22T12:32:53;100103.09;;;20.88;40.66
34712;BME280;20941;42.408;25.634;2022-10-22T12:35:23;100098.78;;;20.94;40.87
34712;BME280;20941;42.408;25.634;2022-10-22T12:37:51;100110.94;;;20.91;40.61
34712;BME280;20941;42.408;25.634;2022-10-22T12:40:17;100110.47;;;20.89;40.55
34712;BME280;20941;42.408;25.634;2022-10-22T12:42:48;100105.94;;;20.72;40.98
34712;BME280;20941;42.408;25.634;2022-10-22T12:45:14;100081.22;;;20.64;41.21
34712;BME280;20941;42.408;25.634;2022-10-22T12:47:44;100080.94;;;20.69;40.92
34712;BME280;20941;42.408;25.634;2022-10-22T12:50:17;100085.09;;;20.72;41.18
34712;BME280;20941;42.408;25.634;2022-10-22T12:52:43;100093.50;;;20.96;40.45
34712;BME280;20941;42.408;25.634;2022-10-22T12:55:14;100062.25;;;20.88;40.35
34712;BME280;20941;42.408;25.634;2022-10-22T12:57:41;100061.63;;;20.94;40.71
34712;BME280;20941;42.408;25.634;2022-10-22T13:00:19;100079.03;;;21.05;40.90
34712;BME280;20941;42.408;25.634;2022-10-22T13:02:45;100075.91;;;20.94;40.35
34712;BME280;20941;42.408;25.634;2022-10-22T13:05:26;100084.47;;;21.10;40.82
34712;BME280;20941;42.408;25.634;2022-10-22T13:08:21;100076.25;;;21.09;40.66
34712;BME280;20941;42.408;25.634;2022-10-22T13:10:50;100080.31;;;21.08;40.80
34712;BME280;20941;42.408;25.634;2022-10-22T13:16:32;100082.91;;;21.13;39.95
34712;BME280;20941;42.408;25.634;2022-10-22T13:18:58;100080.28;;;21.24;39.49
34712;BME280;20941;42.408;25.634;2022-10-22T13:21:52;100081.03;;;21.37;39.70
34712;BME280;20941;42.408;25.634;2022-10-22T13:24:21;100084.38;;;21.07;39.68
34712;BME280;20941;42.408;25.634;2022-10-22T13:26:49;100083.72;;;20.81;40.20
34712;BME280;20941;42.408;25.634;2022-10-22T13:29:17;100083.94;;;20.89;40.75
34712;BME280;20941;42.408;25.634;2022-10-22T13:31:46;100090.22;;;20.94;40.73
34712;BME280;20941;42.408;25.634;2022-10-22T13:34:16;100084.50;;;20.94;40.44
34712;BME280;20941;42.408;25.634;2022-10-22T13:36:42;100076.53;;;21.04;39.82
34712;BME280;20941;42.408;25.634;2022-10-22T13:39:15;100071.72;;;21.08;39.87
34712;BME280;20941;42.408;25.634;2022-10-22T13:41:41;100077.81;;;21.22;39.84
34712;BME280;20941;42.408;25.634;2022-10-22T13:44:07;100056.06;;;21.02;40.60
34712;BME280;20941;42.408;25.634;2022-10-22T13:46:32;100069.06;;;20.99;40.38
34712;BME280;20941;42.408;25.634;2022-10-22T13:49:04;100057.91;;;20.94;40.45
34712;BME280;20941;42.408;25.634;2022-10-22T13:51:34;100061.41;;;20.71;41.23
34712;BME280;20941;42.408;25.634;2022-10-22T13:54:00;100047.63;;;20.61;40.84
34712;BME280;20941;42.408;25.634;2022-10-22T13:56:26;100057.97;;;20.65;40.90
34712;BME280;20941;42.408;25.634;2022-10-22T13:58:51;100067.72;;;20.64;40.88
34712;BME280;20941;42.408;25.634;2022-10-22T14:01:22;100039.97;;;20.49;41.31
34712;BME280;20941;42.408;25.634;2022-10-22T14:03:52;100053.31;;;20.45;41.66
34712;BME280;20941;42.408;25.634;2022-10-22T14:06:19;100030.81;;;20.27;41.42
34712;BME280;20941;42.408;25.634;2022-10-22T14:08:55;100055.34;;;20.28;41.75
34712;BME280;20941;42.408;25.634;2022-10-22T14:11:23;100027.28;;;20.18;41.82
34712;BME280;20941;42.408;25.634;2022-10-22T14:13:49;100053.66;;;20.27;41.64
34712;BME280;20941;42.408;25.634;2022-10-22T14:16:25;100042.53;;;20.22;41.73
34712;BME280;20941;42.408;25.634;2022-10-22T14:18:52;100045.16;;;20.15;42.18
34712;BME280;20941;42.408;25.634;2022-10-22T14:21:19;100043.03;;;20.12;42.78
34712;BME280;20941;42.408;25.634;2022-10-22T14:23:46;100022.53;;;19.94;43.12